Time;durP1;ratioP1;P1;durP2;ratioP2;P2;SDS_P1;SDS_P2;PMS_P1;PMS_P2;Temp;Humidity;BMP_temperature;BMP_pressure;BME280_temperature;BME280_humidity;BME280_pressure;Samples;Min_cycle;Max_cycle;Signal;HPM_P1;HPM_P2
2022/11/04 00:01:24;;;;;;;8.02;7.22;;;;;;;9.96;100.00;122753.75;5079779;28;20028;-62
2022/11/04 00:03:51;;;;;;;7.35;6.63;;;;;;;9.87;100.00;120987.59;5076971;28;20032;-61
2022/11/04 00:06:16;;;;;;;8.73;6.97;;;;;;;9.88;100.00;119242.28;5089192;28;20494;-60
2022/11/04 00:08:42;;;;;;;10.48;7.15;;;;;;;9.87;100.00;116796.31;5094572;28;20016;-61
2022/11/04 00:30:41;;;;;;;9.32;7.75;;;;;;;9.83;100.00;105630.97;5095893;28;20084;-61
2022/11/04 00:33:24;;;;;;;7.88;7.20;;;;;;;9.84;100.00;105284.50;5095477;28;20055;-61
2022/11/04 00:35:51;;;;;;;8.40;7.40;;;;;;;9.86;100.00;105635.31;5096877;28;20065;-61
2022/11/04 00:38:17;;;;;;;8.20;6.97;;;;;;;9.87;100.00;107030.13;5090069;28;20435;-62
2022/11/04 00:40:43;;;;;;;8.30;6.22;;;;;;;9.85;100.00;109466.56;5093156;28;20081;-60
2022/11/04 00:43:08;;;;;;;7.00;6.35;;;;;;;9.79;100.00;111897.03;5092332;28;20040;-61
2022/11/04 00:45:34;;;;;;;11.02;7.15;;;;;;;9.82;100.00;112599.13;5092909;28;20045;-61
2022/11/04 00:47:59;;;;;;;8.55;7.60;;;;;;;9.86;100.00;113303.25;5081099;28;20053;-61
2022/11/04 00:50:24;;;;;;;9.85;8.80;;;;;;;9.83;100.00;114345.31;5092999;28;20032;-61
2022/11/04 00:52:50;;;;;;;10.18;9.15;;;;;;;9.80;100.00;114339.72;5086345;28;20052;-60
2022/11/04 00:55:15;;;;;;;11.65;10.48;;;;;;;9.79;100.00;113292.13;5073136;28;20013;-60
2022/11/04 00:57:41;;;;;;;10.40;9.27;;;;;;;9.83;100.00;112601.88;5079201;28;20046;-60
2022/11/04 01:00:06;;;;;;;12.80;10.18;;;;;;;9.79;100.00;112593.59;5092842;28;20676;-61
2022/11/04 01:02:32;;;;;;;20.73;11.00;;;;;;;9.76;100.00;112240.28;5090903;28;20074;-60
2022/11/04 01:04:57;;;;;;;12.80;11.50;;;;;;;9.74;100.00;111539.22;5073078;28;20400;-61
2022/11/04 01:07:23;;;;;;;15.00;13.02;;;;;;;9.77;100.00;110150.25;5075996;28;20032;-62
2022/11/04 01:09:48;;;;;;;15.57;14.07;;;;;;;9.82;100.00;108765.13;5093026;28;20016;-61
2022/11/04 01:12:14;;;;;;;15.40;13.90;;;;;;;9.82;100.00;108416.66;5091659;28;20096;-62
2022/11/04 01:14:39;;;;;;;16.00;14.32;;;;;;;9.86;100.00;107726.00;5092479;28;20020;-62
2022/11/04 01:17:04;;;;;;;17.10;14.73;;;;;;;9.87;100.00;107378.47;5088847;28;20044;-62
2022/11/04 01:19:30;;;;;;;15.55;13.95;;;;;;;9.85;100.00;107027.53;5073863;28;20032;-61
2022/11/04 01:21:55;;;;;;;15.32;13.73;;;;;;;9.84;100.00;107375.00;5089852;28;20044;-62
2022/11/04 01:24:21;;;;;;;17.38;15.10;;;;;;;9.82;100.00;107370.63;5093107;28;20027;-61
2022/11/04 01:26:46;;;;;;;21.60;17.98;;;;;;;9.83;100.00;107372.34;5091327;28;20492;-62
2022/11/04 01:29:11;;;;;;;17.67;15.98;;;;;;;9.86;100.00;107376.75;5085980;28;20021;-62
2022/11/04 01:31:37;;;;;;;24.40;16.23;;;;;;;9.85;100.00;108421.09;5071068;28;20055;-62
2022/11/04 01:34:02;;;;;;;18.42;16.40;;;;;;;9.79;100.00;109804.38;5072795;28;20021;-62
2022/11/04 01:36:27;;;;;;;28.40;17.33;;;;;;;9.75;100.00;109448.72;5081404;28;20040;-61
2022/11/04 01:38:55;;;;;;;18.55;16.52;;;;;;;9.76;100.00;109450.47;5090979;28;20035;-60
2022/11/04 01:41:27;;;;;;;17.33;15.50;;;;;;;9.69;100.00;109439.78;5090504;28;20501;-61
2022/11/04 01:44:23;;;;;;;16.40;14.75;;;;;;;9.70;100.00;109440.69;5092025;28;20428;-60
2022/11/04 01:46:52;;;;;;;16.00;14.38;;;;;;;9.65;100.00;109780.16;5079798;28;20040;-61
2022/11/04 01:49:32;;;;;;;17.23;13.85;;;;;;;9.58;100.00;110813.94;5090573;28;20020;-61
2022/11/04 01:52:07;;;;;;;18.55;14.65;;;;;;;9.50;100.00;113588.06;5090042;28;20044;-61
2022/11/04 01:54:34;;;;;;;15.30;13.50;;;;;;;9.42;100.00;115665.66;5092306;28;20092;-60
2022/11/04 01:57:02;;;;;;;15.35;13.95;;;;;;;9.32;100.00;117043.97;5090038;28;20185;-59
2022/11/04 01:59:33;;;;;;;13.90;12.60;;;;;;;9.31;100.00;116692.22;5083633;28;20043;-59
2022/11/04 02:01:58;;;;;;;14.23;12.93;;;;;;;9.28;100.00;115989.84;5070940;28;20405;-59
2022/11/04 02:04:24;;;;;;;13.77;11.90;;;;;;;9.29;100.00;115293.25;5078726;28;20028;-60
2022/11/04 02:06:51;;;;;;;11.98;10.73;;;;;;;9.29;100.00;116340.53;5089971;28;20048;-59
2022/11/04 02:09:18;;;;;;;9.88;9.07;;;;;;;9.29;100.00;119481.13;5085625;28;20024;-60
2022/11/04 02:14:28;;;;;;;11.77;9.20;;;;;;;9.15;100.00;127839.41;5078715;28;20031;-59
2022/11/04 02:17:04;;;;;;;10.00;8.90;;;;;;;9.13;100.00;129583.06;5089500;28;20044;-59
2022/11/04 02:19:51;;;;;;;9.15;8.23;;;;;;;9.11;100.00;131679.50;5091029;28;20514;-60
2022/11/04 02:22:32;;;;;;;8.07;7.38;;;;;;;9.09;100.00;135176.78;5090066;28;20050;-60
2022/11/04 02:25:19;;;;;;;10.10;9.10;;;;;;;9.12;100.00;137987.00;5089178;28;20032;-60
2022/11/04 02:27:58;;;;;;;10.50;8.98;;;;;;;9.11;100.00;142895.53;5090172;28;20052;-60
2022/11/04 02:30:25;;;;;;;9.13;7.75;;;;;;;9.03;100.00;149902.44;5076369;28;20115;-59
2022/11/04 02:33:09;;;;;;;12.10;9.25;;;;;;;8.96;100.00;157035.03;5069482;28;20087;-60
2022/11/04 02:36:14;;;;;;;11.38;9.85;;;;;;;8.89;100.00;162671.22;5087918;28;20103;-60
2022/11/04 02:39:04;;;;;;;9.48;8.57;;;;;;;8.85;100.00;162879.38;5089513;28;20040;-60
2022/11/04 02:41:50;;;;;;;10.02;8.57;;;;;;;8.85;100.00;162879.38;5069869;28;20036;-60
2022/11/04 02:44:34;;;;;;;10.52;9.30;;;;;;;8.84;100.00;162876.66;5075850;28;20035;-60
2022/11/04 02:47:05;;;;;;;14.63;10.65;;;;;;;8.85;100.00;162879.38;5088242;28;20043;-60
2022/11/04 02:49:37;;;;;;;10.98;9.82;;;;;;;8.80;100.00;162865.91;5084006;28;20028;-60
2022/11/04 02:52:11;;;;;;;11.00;9.95;;;;;;;8.87;100.00;162884.78;5074586;28;20039;-60
2022/11/04 02:54:43;;;;;;;13.75;10.20;;;;;;;8.88;100.00;162887.47;5090598;28;20078;-61
2022/11/04 02:57:16;;;;;;;11.25;10.20;;;;;;;8.89;100.00;162890.19;5089326;28;20051;-60
2022/11/04 02:59:48;;;;;;;14.52;9.55;;;;;;;8.89;100.00;162890.19;5080685;28;20116;-61
2022/11/04 03:02:21;;;;;;;14.57;11.95;;;;;;;8.83;100.00;162873.94;5069264;28;20064;-61
2022/11/04 03:04:50;;;;;;;13.02;11.52;;;;;;;8.85;100.00;162878.03;5070494;28;20024;-61
2022/11/04 03:07:21;;;;;;;13.77;12.35;;;;;;;8.79;100.00;162863.19;5069106;28;20532;-61
2022/11/04 03:09:52;;;;;;;16.08;13.15;;;;;;;8.85;100.00;162879.38;5082428;28;20040;-61
2022/11/04 03:12:25;;;;;;;16.15;14.13;;;;;;;8.83;100.00;162873.94;5089247;28;20040;-60
2022/11/04 03:15:14;;;;;;;16.98;14.70;;;;;;;8.81;100.00;162868.59;5090468;28;20031;-60
2022/11/04 03:17:49;;;;;;;25.20;17.60;;;;;;;8.83;100.00;162873.94;5089000;28;20115;-60
2022/11/04 03:20:26;;;;;;;17.65;13.93;;;;;;;8.87;100.00;162884.78;5077189;28;20031;-59
2022/11/04 03:22:58;;;;;;;15.40;13.82;;;;;;;8.89;100.00;162890.19;5088891;28;20052;-59
2022/11/04 03:25:27;;;;;;;20.42;16.30;;;;;;;8.89;100.00;162888.81;5090691;28;20609;-59
2022/11/04 03:28:05;;;;;;;19.55;17.45;;;;;;;8.87;100.00;162884.78;5087496;28;20091;-59
2022/11/04 03:30:38;;;;;;;21.52;18.85;;;;;;;8.83;100.00;162873.94;5086849;28;20025;-59
2022/11/04 03:33:15;;;;;;;23.23;20.73;;;;;;;8.79;100.00;162861.81;5069104;28;20428;-60
2022/11/04 03:35:41;;;;;;;24.20;20.75;;;;;;;8.80;100.00;162865.91;5077655;28;20024;-61
2022/11/04 03:38:06;;;;;;;26.40;22.38;;;;;;;8.75;100.00;162851.06;5089429;28;20032;-61
2022/11/04 03:40:31;;;;;;;25.45;21.73;;;;;;;8.72;100.00;162844.31;5079089;28;20400;-61
2022/11/04 03:42:59;;;;;;;24.08;21.08;;;;;;;8.68;100.00;162833.50;5088800;28;20044;-61
2022/11/04 03:45:25;;;;;;;28.00;20.60;;;;;;;8.61;100.00;162814.63;5090807;28;20412;-61
2022/11/04 03:47:51;;;;;;;23.38;20.48;;;;;;;8.56;100.00;162803.88;5088994;28;20120;-61
2022/11/04 03:50:25;;;;;;;24.27;21.10;;;;;;;8.54;100.00;162798.47;5088526;28;20032;-62
2022/11/04 03:52:51;;;;;;;26.67;23.85;;;;;;;8.48;100.00;162782.28;5069016;28;20041;-61
2022/11/04 03:55:16;;;;;;;26.42;23.70;;;;;;;8.46;100.00;161810.91;5084964;28;20028;-61
2022/11/04 03:58:06;;;;;;;26.85;22.38;;;;;;;8.51;100.00;154696.25;5085209;28;20094;-61
2022/11/04 04:00:43;;;;;;;30.25;23.50;;;;;;;8.57;100.00;149791.09;5082974;28;20020;-61
2022/11/04 04:03:17;;;;;;;26.52;23.70;;;;;;;8.59;100.00;147687.78;5089325;28;20400;-61
2022/11/04 04:05:54;;;;;;;33.58;25.17;;;;;;;8.57;100.00;147334.25;5090021;28;20028;-61
2022/11/04 04:08:34;;;;;;;34.05;26.42;;;;;;;8.53;100.00;149782.44;5088664;28;20119;-61
2022/11/04 04:11:20;;;;;;;31.33;25.50;;;;;;;8.50;100.00;150126.28;5083644;28;20537;-61
2022/11/04 04:13:53;;;;;;;28.52;24.83;;;;;;;8.49;100.00;149421.38;5070803;28;20132;-61
2022/11/04 04:16:42;;;;;;;31.92;25.10;;;;;;;8.42;100.00;150106.38;5073846;28;20067;-61
2022/11/04 04:19:14;;;;;;;39.83;27.65;;;;;;;8.38;100.00;150447.63;5072021;28;20040;-62
2022/11/04 04:21:45;;;;;;;28.48;24.08;;;;;;;8.34;100.00;150438.94;5085579;28;20038;-61
2022/11/04 04:29:45;;;;;;;34.33;27.27;;;;;;;8.19;100.00;147945.97;5093732;28;20142;-61
2022/11/04 04:32:12;;;;;;;35.30;30.50;;;;;;;8.14;100.00;147933.75;5092201;28;20052;-61
2022/11/04 04:34:37;;;;;;;36.13;27.80;;;;;;;8.10;100.00;146872.84;5093276;28;20392;-61
2022/11/04 04:37:08;;;;;;;33.72;26.83;;;;;;;8.07;100.00;145111.06;5075966;28;20040;-61
2022/11/04 04:45:27;;;;;;;35.53;27.92;;;;;;;8.00;100.00;137390.72;5073564;28;20058;-61
2022/11/04 04:47:53;;;;;;;35.35;27.60;;;;;;;7.98;100.00;136336.69;5071558;28;20040;-61
2022/11/04 04:50:20;;;;;;;39.58;27.90;;;;;;;7.99;100.00;134590.34;5074056;28;20051;-61
2022/11/04 04:52:52;;;;;;;33.92;28.92;;;;;;;7.94;100.00;133531.63;5079424;28;20040;-60
2022/11/04 04:55:18;;;;;;;35.10;27.13;;;;;;;7.89;100.00;132821.72;5093727;28;20036;-61
2022/11/04 04:57:43;;;;;;;47.10;31.15;;;;;;;7.85;100.00;132462.47;5072092;28;20515;-61
2022/11/04 05:00:14;;;;;;;32.40;27.27;;;;;;;7.81;100.00;132104.44;5075509;28;20025;-61
2022/11/04 05:02:39;;;;;;;35.72;28.35;;;;;;;7.75;100.00;132092.47;5091676;28;20515;-61
2022/11/04 05:05:05;;;;;;;32.63;27.08;;;;;;;7.71;100.00;131735.59;5092862;28;20032;-61
2022/11/04 05:07:30;;;;;;;36.65;30.30;;;;;;;7.67;100.00;131726.88;5091686;28;20048;-60
2022/11/04 05:09:56;;;;;;;41.00;28.20;;;;;;;7.59;100.00;132058.78;5086208;28;20030;-59
2022/11/04 05:12:21;;;;;;;35.67;27.55;;;;;;;7.55;100.00;132400.38;5083882;28;20415;-60
2022/11/04 05:14:47;;;;;;;44.20;27.48;;;;;;;7.45;100.00;132728.81;5087383;28;20093;-59
2022/11/04 05:17:13;;;;;;;34.75;27.00;;;;;;;7.47;100.00;132732.09;5074180;28;20585;-59
2022/11/04 05:19:39;;;;;;;36.20;27.92;;;;;;;7.41;100.00;132020.75;5089470;28;20036;-59
2022/11/04 05:22:04;;;;;;;36.88;28.90;;;;;;;7.38;100.00;130619.16;5075759;28;20040;-59
2022/11/04 05:24:29;;;;;;;39.65;27.58;;;;;;;7.37;100.00;129569.19;5072247;28;20028;-59
2022/11/04 05:26:55;;;;;;;35.38;26.92;;;;;;;7.36;100.00;129915.94;5073702;28;20048;-59
2022/11/04 05:29:20;;;;;;;36.50;26.30;;;;;;;7.29;100.00;130250.94;5085351;28;20076;-59
2022/11/04 05:31:46;;;;;;;44.63;31.17;;;;;;;7.31;100.00;128859.84;5072845;28;20113;-59
2022/11/04 05:34:12;;;;;;;41.25;31.08;;;;;;;7.42;100.00;125047.66;5072324;28;20021;-61
2022/11/04 05:36:38;;;;;;;57.38;28.20;;;;;;;7.45;100.00;122963.13;5070850;28;20047;-61
2022/11/04 05:39:04;;;;;;;35.75;28.23;;;;;;;7.44;100.00;122263.44;5072489;28;20028;-61
2022/11/04 05:41:30;;;;;;;37.67;28.40;;;;;;;7.42;100.00;122259.44;5075511;28;20076;-61
2022/11/04 05:43:58;;;;;;;41.42;26.77;;;;;;;7.40;100.00;122255.44;5079261;28;20413;-61
2022/11/04 05:46:24;;;;;;;44.92;33.22;;;;;;;7.40;100.00;122255.44;5090148;28;20028;-61
2022/11/04 05:48:49;;;;;;;43.35;31.33;;;;;;;7.16;100.00;122905.59;5091680;28;20024;-61
2022/11/04 05:51:17;;;;;;;47.95;30.52;;;;;;;7.38;100.00;121903.16;5090804;28;20027;-61
2022/11/04 05:53:42;;;;;;;44.88;30.10;;;;;;;7.50;100.00;118444.72;5092308;28;20062;-61
2022/11/04 05:56:08;;;;;;;40.95;28.73;;;;;;;7.61;100.00;114987.88;5091820;28;20524;-61
2022/11/04 05:58:33;;;;;;;37.92;26.23;;;;;;;7.74;100.00;111533.53;5090436;28;20063;-61
2022/11/04 06:01:35;;;;;;;36.60;26.30;;;;;;;7.86;100.00;109469.41;5092298;28;20024;-61
2022/11/04 06:04:01;;;;;;;39.80;25.23;;;;;;;7.91;100.00;108436.97;5085275;28;20534;-61
2022/11/04 06:06:29;;;;;;;40.33;27.85;;;;;;;7.88;100.00;109126.44;5090457;28;20020;-61
2022/11/04 06:08:55;;;;;;;40.33;28.37;;;;;;;7.86;100.00;109817.72;5091895;28;20556;-61
2022/11/04 06:11:21;;;;;;;32.97;25.88;;;;;;;7.89;100.00;110518.16;5090391;28;20024;-61
2022/11/04 06:13:47;;;;;;;39.88;25.60;;;;;;;7.90;100.00;111562.75;5089555;28;20388;-61
2022/11/04 06:16:12;;;;;;;31.52;22.35;;;;;;;7.95;100.00;113309.69;5080670;28;20020;-60
2022/11/04 06:18:38;;;;;;;45.90;24.02;;;;;;;7.98;100.00;114706.78;5082440;28;20032;-60
2022/11/04 06:21:08;;;;;;;31.17;23.30;;;;;;;8.03;100.00;116107.38;5091913;28;20024;-59
2022/11/04 06:23:33;;;;;;;28.92;22.30;;;;;;;8.03;100.00;117151.81;5089926;28;20147;-60
2022/11/04 06:25:58;;;;;;;32.67;21.63;;;;;;;8.09;100.00;117163.31;5091318;28;20020;-58
2022/11/04 06:28:24;;;;;;;28.25;19.05;;;;;;;8.17;100.00;116829.50;5090096;28;20043;-59
2022/11/04 06:30:49;;;;;;;27.48;19.90;;;;;;;8.23;100.00;117189.25;5091670;28;20028;-59
2022/11/04 06:33:14;;;;;;;25.08;16.80;;;;;;;8.24;100.00;118933.06;5089680;28;20516;-59
2022/11/04 06:35:40;;;;;;;25.80;15.50;;;;;;;8.28;100.00;121380.94;5090479;28;20436;-59
2022/11/04 06:38:05;;;;;;;23.13;14.85;;;;;;;8.29;100.00;124522.34;5090092;28;20069;-59
2022/11/04 06:40:30;;;;;;;25.75;16.48;;;;;;;8.32;100.00;126970.97;5091158;28;20032;-59
2022/11/04 06:42:56;;;;;;;23.70;17.33;;;;;;;8.23;100.00;129747.25;5089738;28;20040;-59
2022/11/04 06:45:21;;;;;;;23.30;14.93;;;;;;;8.30;100.00;131858.13;5091629;28;20024;-59
2022/11/04 06:47:46;;;;;;;21.27;14.68;;;;;;;8.25;100.00;133597.59;5089231;28;20043;-59
2022/11/04 06:50:12;;;;;;;20.90;14.40;;;;;;;8.33;100.00;134663.50;5091319;28;20031;-59
2022/11/04 06:52:37;;;;;;;18.85;12.88;;;;;;;8.32;100.00;137459.78;5089528;28;20036;-59
2022/11/04 06:55:03;;;;;;;37.22;14.88;;;;;;;8.31;100.00;139559.59;5090889;28;20032;-59
2022/11/04 06:57:28;;;;;;;23.50;12.60;;;;;;;8.36;100.00;140971.28;5089722;28;20064;-59
2022/11/04 06:59:53;;;;;;;19.65;14.65;;;;;;;8.31;100.00;143763.47;5091165;28;20028;-59
2022/11/04 07:02:19;;;;;;;15.07;12.45;;;;;;;8.37;100.00;143777.75;5089314;28;20588;-59
2022/11/04 07:04:44;;;;;;;19.10;13.38;;;;;;;8.36;100.00;145178.13;5090938;28;20016;-59
2022/11/04 07:07:09;;;;;;;20.73;11.57;;;;;;;8.44;100.00;145898.94;5089177;28;20040;-59
2022/11/04 07:09:35;;;;;;;18.58;10.52;;;;;;;8.48;100.00;146961.38;5079329;28;20459;-59
2022/11/04 07:12:00;;;;;;;17.70;11.43;;;;;;;8.51;100.00;149426.31;5071966;28;20044;-59
2022/11/04 07:14:26;;;;;;;26.73;13.85;;;;;;;8.55;100.00;150840.06;5070791;28;20024;-59
2022/11/04 07:16:51;;;;;;;17.52;11.07;;;;;;;8.56;100.00;151897.94;5068359;28;20544;-59
2022/11/04 07:19:17;;;;;;;16.20;11.45;;;;;;;8.53;100.00;153647.84;5070175;28;20039;-59
2022/11/04 07:21:42;;;;;;;24.23;12.98;;;;;;;8.59;100.00;155418.91;5068883;28;20033;-59
2022/11/04 07:24:07;;;;;;;17.23;11.38;;;;;;;8.55;100.00;157680.22;5070303;28;20016;-59
2022/11/04 07:26:33;;;;;;;17.95;11.27;;;;;;;8.57;100.00;159710.81;5069046;28;20523;-59
2022/11/04 07:28:59;;;;;;;18.58;12.98;;;;;;;8.50;100.00;160589.06;5069310;28;20435;-59
2022/11/04 07:31:25;;;;;;;21.95;11.38;;;;;;;8.48;100.00;160867.06;5068892;28;20542;-58
2022/11/04 07:33:50;;;;;;;13.93;10.95;;;;;;;8.46;100.00;159860.44;5070231;28;20016;-59
2022/11/04 07:36:17;;;;;;;13.65;9.77;;;;;;;8.48;100.00;158004.13;5085473;28;20032;-58
2022/11/04 07:38:42;;;;;;;11.43;8.32;;;;;;;8.43;100.00;157171.91;5090536;28;20027;-59
2022/11/04 07:41:08;;;;;;;21.30;12.00;;;;;;;8.50;100.00;159547.94;5090174;28;20032;-59
2022/11/04 07:43:33;;;;;;;12.23;8.48;;;;;;;8.48;100.00;161574.19;5088953;28;20052;-59
2022/11/04 07:46:04;;;;;;;11.60;9.98;;;;;;;8.53;100.00;160129.31;5090500;28;20077;-59
2022/11/04 07:48:30;;;;;;;11.48;8.68;;;;;;;8.47;100.00;161494.44;5092593;28;20047;-59
2022/11/04 07:50:59;;;;;;;17.67;8.85;;;;;;;8.60;100.00;160830.38;5094754;28;20024;-59
2022/11/04 07:53:25;;;;;;;12.50;9.35;;;;;;;8.64;100.00;162054.69;5083531;28;20044;-59
2022/11/04 07:55:51;;;;;;;18.08;9.38;;;;;;;8.63;100.00;162493.81;5073628;28;20550;-59
2022/11/04 07:58:19;;;;;;;16.35;9.30;;;;;;;8.70;100.00;162840.28;5073007;28;20040;-59
2022/11/04 08:00:45;;;;;;;17.35;8.75;;;;;;;8.81;100.00;162737.78;5074278;28;20016;-59
2022/11/04 08:03:11;;;;;;;10.15;7.50;;;;;;;9.05;100.00;160991.53;5072401;28;20049;-59
2022/11/04 08:05:36;;;;;;;17.10;8.57;;;;;;;9.25;100.00;162983.19;5072547;28;20138;-59
2022/11/04 08:08:02;;;;;;;17.08;10.30;;;;;;;9.39;100.00;163018.25;5072646;28;20041;-59
2022/11/04 08:10:28;;;;;;;8.05;7.25;;;;;;;9.51;100.00;163051.97;5073822;28;20477;-59
2022/11/04 08:12:53;;;;;;;15.05;7.50;;;;;;;9.56;100.00;163062.78;5072435;28;20409;-59
2022/11/04 08:15:18;;;;;;;14.70;7.85;;;;;;;9.46;100.00;163038.50;5073983;28;20066;-59
2022/11/04 08:17:44;;;;;;;18.77;7.28;;;;;;;9.47;100.00;163039.81;5072764;28;20061;-59
2022/11/04 08:20:09;;;;;;;12.48;6.68;;;;;;;9.42;100.00;163027.69;5094205;28;20028;-59
2022/11/04 08:22:35;;;;;;;18.13;7.18;;;;;;;9.25;100.00;162981.84;5092188;28;20127;-59
2022/11/04 08:25:00;;;;;;;17.10;8.85;;;;;;;9.19;100.00;162967.00;5093788;28;20032;-59
2022/11/04 08:27:25;;;;;;;19.48;6.70;;;;;;;9.39;100.00;163018.25;5092644;28;20032;-59
2022/11/04 08:29:51;;;;;;;12.55;6.93;;;;;;;9.35;100.00;163008.81;5093775;28;20024;-59
2022/11/04 08:32:16;;;;;;;11.82;6.97;;;;;;;9.28;100.00;162991.31;5092062;28;20511;-59
2022/11/04 08:34:42;;;;;;;13.82;7.47;;;;;;;9.47;100.00;163041.22;5093726;28;20024;-58
2022/11/04 08:37:07;;;;;;;12.57;7.18;;;;;;;9.56;100.00;163062.78;5092268;28;20032;-59
2022/11/04 08:39:33;;;;;;;13.50;7.10;;;;;;;9.63;100.00;163083.00;5093541;28;20027;-59
2022/11/04 08:41:58;;;;;;;12.90;8.18;;;;;;;9.65;100.00;163087.03;5092270;28;20036;-59
2022/11/04 08:44:24;;;;;;;12.90;8.55;;;;;;;9.68;100.00;163096.47;5093963;28;20024;-60
2022/11/04 08:46:49;;;;;;;18.95;7.38;;;;;;;9.66;100.00;163089.75;5091829;28;20137;-60
2022/11/04 08:49:15;;;;;;;12.20;7.28;;;;;;;9.55;100.00;163060.09;5093662;28;20024;-60
2022/11/04 08:51:43;;;;;;;13.85;8.02;;;;;;;9.60;100.00;163073.56;5091733;28;20430;-59
2022/11/04 08:54:09;;;;;;;14.18;7.03;;;;;;;9.50;100.00;163049.28;5093341;28;20537;-60
2022/11/04 08:56:36;;;;;;;11.88;7.32;;;;;;;9.55;100.00;163061.41;5090358;28;20044;-59
2022/11/04 08:59:03;;;;;;;14.68;6.90;;;;;;;9.66;100.00;163091.13;5091549;28;20027;-60
2022/11/04 09:01:30;;;;;;;12.77;7.40;;;;;;;9.82;100.00;163132.94;5091800;28;20027;-60
2022/11/04 09:03:56;;;;;;;20.20;9.48;;;;;;;9.97;100.00;163172.06;5093054;28;20484;-60
2022/11/04 09:06:28;;;;;;;13.68;6.82;;;;;;;10.02;100.00;163184.19;5091729;28;20031;-59
2022/11/04 09:09:01;;;;;;;10.55;6.32;;;;;;;10.09;100.00;163203.06;5092794;28;20103;-60
2022/11/04 09:11:26;;;;;;;18.80;7.82;;;;;;;10.07;100.00;163197.69;5091859;28;20047;-59
2022/11/04 09:13:52;;;;;;;10.38;5.40;;;;;;;10.05;100.00;163192.28;5092988;28;20492;-59
2022/11/04 09:16:17;;;;;;;11.27;6.68;;;;;;;10.21;100.00;163234.09;5091273;28;20032;-59
2022/11/04 09:18:43;;;;;;;12.48;7.25;;;;;;;10.22;100.00;163235.47;5092901;28;20020;-60
2022/11/04 09:21:09;;;;;;;16.65;6.75;;;;;;;10.38;100.00;163277.34;5093133;28;20028;-60
2022/11/04 09:23:35;;;;;;;13.00;7.20;;;;;;;10.43;100.00;163292.22;5090905;28;20047;-60
2022/11/04 09:26:06;;;;;;;14.75;8.15;;;;;;;10.57;100.00;163328.66;5092855;28;20028;-60
2022/11/04 09:28:32;;;;;;;19.23;8.18;;;;;;;10.62;100.00;163340.78;5091390;28;20050;-60
2022/11/04 09:30:57;;;;;;;12.85;6.72;;;;;;;10.81;100.00;163390.72;5092428;28;20024;-60
2022/11/04 09:33:22;;;;;;;10.15;5.90;;;;;;;10.77;100.00;163379.94;5090990;28;20058;-60
2022/11/04 09:35:56;;;;;;;10.98;6.03;;;;;;;11.04;100.00;163450.13;5092680;28;20024;-60
2022/11/04 09:38:22;;;;;;;19.05;5.35;;;;;;;11.14;100.00;163475.78;5091010;28;20032;-60
2022/11/04 09:40:49;;;;;;;20.83;7.25;;;;;;;11.33;100.00;163527.13;5092616;28;20377;-60
2022/11/04 09:43:41;;;;;;;12.57;7.53;;;;;;;11.50;100.00;163570.34;5091386;28;20048;-60
2022/11/04 09:46:10;;;;;;;12.07;5.72;;;;;;;12.03;100.00;163710.84;5092141;28;20035;-60
2022/11/04 09:48:44;;;;;;;21.70;5.68;;;;;;;12.80;100.00;163910.84;5091177;28;20044;-60
2022/11/04 09:51:10;;;;;;;13.75;5.13;;;;;;;13.35;100.00;164054.16;5092476;28;20557;-60
2022/11/04 09:53:55;;;;;;;9.20;4.30;;;;;;;13.61;100.00;164124.50;5090492;28;20031;-60
2022/11/04 09:56:37;;;;;;;13.48;6.60;;;;;;;14.23;100.00;164286.81;5090968;28;20058;-60
2022/11/04 09:59:04;;;;;;;9.50;5.18;;;;;;;14.68;100.00;164403.22;5092374;28;20020;-60
2022/11/04 10:01:38;;;;;;;10.35;4.68;;;;;;;14.86;100.00;164451.91;5090466;28;20032;-60
2022/11/04 10:04:24;;;;;;;11.75;4.70;;;;;;;15.01;100.00;164489.81;5092200;28;20027;-60
2022/11/04 10:07:11;;;;;;;8.85;4.63;;;;;;;14.65;100.00;164395.03;5090516;28;20244;-60
2022/11/04 10:09:45;;;;;;;9.93;4.80;;;;;;;13.95;100.00;164213.78;5091690;28;20032;-60
2022/11/04 10:12:25;;;;;;;10.00;4.90;;;;;;;13.28;100.00;164037.94;5090499;28;20039;-60
2022/11/04 10:15:00;;;;;;;14.98;5.35;;;;;;;12.77;100.00;163902.75;5091517;28;20059;-60
2022/11/04 10:17:54;;;;;;;13.27;5.32;;;;;;;12.09;100.00;163724.38;5090560;28;20040;-60
2022/11/04 10:20:28;;;;;;;10.65;6.47;;;;;;;11.55;100.00;163583.84;5092330;28;20028;-60
2022/11/04 10:22:57;;;;;;;13.63;7.45;;;;;;;11.27;100.00;163510.94;5090096;28;20040;-60
2022/11/04 10:25:35;;;;;;;12.52;7.03;;;;;;;10.96;100.00;163429.91;5092049;28;20020;-60
2022/11/04 10:28:02;;;;;;;21.58;10.57;;;;;;;10.78;100.00;163384.00;5090472;28;20039;-60
2022/11/04 10:30:30;;;;;;;22.13;8.50;;;;;;;10.68;100.00;163355.63;5091095;28;20028;-60
2022/11/04 10:33:10;;;;;;;;;;;;;;;10.99;100.00;163437.97;5087688;28;20137;-60
2022/11/04 10:35:46;;;;;;;19.10;9.38;;;;;;;11.44;100.00;163555.47;5088491;28;19947;-60
2022/11/04 10:38:21;;;;;;;13.50;6.63;;;;;;;12.09;100.00;163724.38;5084598;28;20071;-60
2022/11/04 10:40:53;;;;;;;10.75;6.45;;;;;;;12.44;100.00;163817.59;5074164;28;20033;-60
2022/11/04 10:43:33;;;;;;;13.05;6.93;;;;;;;12.65;100.00;163873.00;5069713;28;20686;-60
2022/11/04 10:46:38;;;;;;;23.08;9.40;;;;;;;12.86;100.00;163927.06;5085640;28;20035;-60
2022/11/04 10:49:41;;;;;;;14.07;6.57;;;;;;;13.29;100.00;164040.59;5090090;28;20032;-60
2022/11/04 10:52:08;;;;;;;9.98;5.72;;;;;;;13.66;100.00;164135.34;5089610;28;20036;-60
2022/11/04 10:54:42;;;;;;;14.85;6.60;;;;;;;12.68;100.00;163881.13;5089456;28;20030;-60
2022/11/04 10:57:08;;;;;;;14.25;7.88;;;;;;;12.77;100.00;163904.09;5085164;28;20561;-60
2022/11/04 10:59:51;;;;;;;13.93;8.93;;;;;;;12.93;100.00;163944.66;5079541;28;20511;-60
2022/11/04 11:02:17;;;;;;;15.20;8.85;;;;;;;12.68;100.00;163881.13;5089703;28;20044;-60
2022/11/04 11:04:46;;;;;;;15.27;8.77;;;;;;;12.85;100.00;163924.34;5078445;28;20082;-60
2022/11/04 11:07:18;;;;;;;11.23;8.02;;;;;;;12.74;100.00;163894.63;5070297;28;20047;-60
2022/11/04 11:09:52;;;;;;;14.13;8.00;;;;;;;12.76;100.00;163900.06;5070916;28;20028;-60
2022/11/04 11:12:27;;;;;;;16.48;8.20;;;;;;;12.92;100.00;163941.94;5070508;28;20032;-60
2022/11/04 11:14:53;;;;;;;15.60;8.80;;;;;;;13.00;100.00;163963.56;5077553;28;20508;-60
2022/11/04 11:17:32;;;;;;;19.95;7.38;;;;;;;13.01;100.00;163967.63;5078376;28;20378;-60
2022/11/04 11:20:07;;;;;;;15.88;7.68;;;;;;;12.98;100.00;163958.16;5081502;28;20024;-60
2022/11/04 11:22:42;;;;;;;9.27;7.18;;;;;;;12.69;100.00;163883.84;5080675;28;20408;-60
2022/11/04 11:25:28;;;;;;;14.23;8.30;;;;;;;12.35;100.00;163794.63;5088176;28;20089;-60
2022/11/04 11:27:59;;;;;;;15.10;7.97;;;;;;;12.56;100.00;163848.66;5069012;28;20059;-60
2022/11/04 11:30:55;;;;;;;17.27;9.40;;;;;;;12.92;100.00;163941.94;5071126;28;20028;-60
2022/11/04 11:33:34;;;;;;;11.75;7.35;;;;;;;12.95;100.00;163951.41;5075352;28;20382;-60
2022/11/04 11:36:13;;;;;;;12.93;8.13;;;;;;;12.68;100.00;163881.13;5081436;28;20012;-60
2022/11/04 11:38:53;;;;;;;11.45;6.85;;;;;;;12.42;100.00;163810.84;5080782;28;20040;-60
2022/11/04 11:41:22;;;;;;;10.30;6.78;;;;;;;12.27;100.00;163773.00;5088254;28;20388;-60
2022/11/04 11:43:52;;;;;;;16.20;7.38;;;;;;;12.05;100.00;163716.25;5075673;28;20024;-63
2022/11/04 11:46:22;;;;;;;11.45;7.35;;;;;;;12.24;100.00;163764.91;5082079;28;20060;-60
2022/11/04 11:49:01;;;;;;;8.35;6.65;;;;;;;12.36;100.00;163797.34;5080425;28;20028;-60
2022/11/04 11:51:37;;;;;;;12.90;9.95;;;;;;;12.63;100.00;163866.25;5082579;28;20051;-60
2022/11/04 11:54:21;;;;;;;14.52;7.38;;;;;;;12.64;100.00;163870.28;5090615;28;20075;-60
2022/11/04 11:56:53;;;;;;;14.80;9.57;;;;;;;12.80;100.00;163910.84;5077397;28;20049;-60
2022/11/04 11:59:24;;;;;;;14.73;7.80;;;;;;;12.36;100.00;163797.34;5074221;28;20016;-60